sensor_id;sensor_type;location;lat;lon;timestamp;temperature;humidity
13892;DHT22;7016;48.172;8.058;2024-01-07T00:01:49;6.30;99.90
13892;DHT22;7016;48.172;8.058;2024-01-07T00:04:35;6.30;99.90
13892;DHT22;7016;48.172;8.058;2024-01-07T00:07:21;6.30;99.90
13892;DHT22;7016;48.172;8.058;2024-01-07T00:10:08;6.30;99.90
13892;DHT22;7016;48.172;8.058;2024-01-07T00:12:55;6.30;99.90
13892;DHT22;7016;48.172;8.058;2024-01-07T00:15:41;6.30;99.90
13892;DHT22;7016;48.172;8.058;2024-01-07T00:18:28;6.30;99.90
13892;DHT22;7016;48.172;8.058;2024-01-07T00:21:14;6.40;99.90
13892;DHT22;7016;48.172;8.058;2024-01-07T00:24:00;6.40;99.90
13892;DHT22;7016;48.172;8.058;2024-01-07T00:26:46;6.30;99.90
13892;DHT22;7016;48.172;8.058;2024-01-07T00:29:32;6.30;99.90
13892;DHT22;7016;48.172;8.058;2024-01-07T00:32:21;6.30;99.90
13892;DHT22;7016;48.172;8.058;2024-01-07T00:35:07;6.30;99.90
13892;DHT22;7016;48.172;8.058;2024-01-07T00:37:53;6.30;99.90
13892;DHT22;7016;48.172;8.058;2024-01-07T00:40:42;6.30;99.90
13892;DHT22;7016;48.172;8.058;2024-01-07T00:43:29;6.30;99.90
13892;DHT22;7016;48.172;8.058;2024-01-07T00:46:15;6.30;99.90
13892;DHT22;7016;48.172;8.058;2024-01-07T00:49:01;6.30;99.90
13892;DHT22;7016;48.172;8.058;2024-01-07T00:51:47;6.30;99.90
13892;DHT22;7016;48.172;8.058;2024-01-07T00:54:33;6.30;99.90
13892;DHT22;7016;48.172;8.058;2024-01-07T00:57:19;6.30;99.90
13892;DHT22;7016;48.172;8.058;2024-01-07T01:00:06;6.20;99.90
13892;DHT22;7016;48.172;8.058;2024-01-07T01:02:53;6.30;99.90
13892;DHT22;7016;48.172;8.058;2024-01-07T01:05:39;6.30;99.90
13892;DHT22;7016;48.172;8.058;2024-01-07T01:08:26;6.30;99.90
13892;DHT22;7016;48.172;8.058;2024-01-07T01:11:12;6.20;99.90
13892;DHT22;7016;48.172;8.058;2024-01-07T01:13:58;6.20;99.90
13892;DHT22;7016;48.172;8.058;2024-01-07T01:16:44;6.20;99.90
13892;DHT22;7016;48.172;8.058;2024-01-07T01:19:30;6.20;99.90
13892;DHT22;7016;48.172;8.058;2024-01-07T01:22:16;6.20;99.90
13892;DHT22;7016;48.172;8.058;2024-01-07T01:25:03;6.30;99.90
13892;DHT22;7016;48.172;8.058;2024-01-07T01:27:50;6.30;99.90
13892;DHT22;7016;48.172;8.058;2024-01-07T01:30:36;6.30;99.90
13892;DHT22;7016;48.172;8.058;2024-01-07T01:33:22;6.30;99.90
13892;DHT22;7016;48.172;8.058;2024-01-07T01:36:08;6.30;99.90
13892;DHT22;7016;48.172;8.058;2024-01-07T01:38:55;6.20;99.90
13892;DHT22;7016;48.172;8.058;2024-01-07T01:41:41;6.40;99.90
13892;DHT22;7016;48.172;8.058;2024-01-07T01:44:27;6.40;99.90
13892;DHT22;7016;48.172;8.058;2024-01-07T01:47:14;6.30;99.90
13892;DHT22;7016;48.172;8.058;2024-01-07T01:50:00;6.20;99.90
13892;DHT22;7016;48.172;8.058;2024-01-07T01:52:46;6.30;99.90
13892;DHT22;7016;48.172;8.058;2024-01-07T01:55:33;6.30;99.90
13892;DHT22;7016;48.172;8.058;2024-01-07T01:58:19;6.30;99.90
13892;DHT22;7016;48.172;8.058;2024-01-07T02:01:07;6.40;99.90
13892;DHT22;7016;48.172;8.058;2024-01-07T02:03:53;6.30;99.90
13892;DHT22;7016;48.172;8.058;2024-01-07T02:06:40;6.30;99.90
13892;DHT22;7016;48.172;8.058;2024-01-07T02:09:26;6.30;99.90
13892;DHT22;7016;48.172;8.058;2024-01-07T02:12:12;6.30;99.90
13892;DHT22;7016;48.172;8.058;2024-01-07T02:14:58;6.20;99.90
13892;DHT22;7016;48.172;8.058;2024-01-07T02:17:44;6.30;99.90
13892;DHT22;7016;48.172;8.058;2024-01-07T02:20:31;6.20;99.90
13892;DHT22;7016;48.172;8.058;2024-01-07T02:23:17;6.20;99.90
13892;DHT22;7016;48.172;8.058;2024-01-07T02:26:03;6.20;99.90
13892;DHT22;7016;48.172;8.058;2024-01-07T02:28:49;6.20;99.90
13892;DHT22;7016;48.172;8.058;2024-01-07T02:31:35;6.20;99.90
13892;DHT22;7016;48.172;8.058;2024-01-07T02:34:21;6.20;99.90
13892;DHT22;7016;48.172;8.058;2024-01-07T02:37:07;6.20;99.90
13892;DHT22;7016;48.172;8.058;2024-01-07T02:39:54;6.30;99.90
13892;DHT22;7016;48.172;8.058;2024-01-07T02:42:40;6.30;99.90
13892;DHT22;7016;48.172;8.058;2024-01-07T02:45:26;6.30;99.90
13892;DHT22;7016;48.172;8.058;2024-01-07T02:48:12;6.30;99.90
13892;DHT22;7016;48.172;8.058;2024-01-07T02:50:58;6.30;99.90
13892;DHT22;7016;48.172;8.058;2024-01-07T02:53:45;6.30;99.90
13892;DHT22;7016;48.172;8.058;2024-01-07T02:56:31;6.30;99.90
13892;DHT22;7016;48.172;8.058;2024-01-07T02:59:17;6.30;99.90
13892;DHT22;7016;48.172;8.058;2024-01-07T03:02:03;6.30;99.90
13892;DHT22;7016;48.172;8.058;2024-01-07T03:04:49;6.40;99.90
13892;DHT22;7016;48.172;8.058;2024-01-07T03:07:37;6.40;99.90
13892;DHT22;7016;48.172;8.058;2024-01-07T03:10:25;6.40;99.90
13892;DHT22;7016;48.172;8.058;2024-01-07T03:13:11;6.30;99.90
13892;DHT22;7016;48.172;8.058;2024-01-07T03:15:58;6.40;99.90
13892;DHT22;7016;48.172;8.058;2024-01-07T03:18:44;6.30;99.90
13892;DHT22;7016;48.172;8.058;2024-01-07T03:21:30;6.40;99.90
13892;DHT22;7016;48.172;8.058;2024-01-07T03:24:16;6.00;99.90
13892;DHT22;7016;48.172;8.058;2024-01-07T03:27:02;6.00;99.90
13892;DHT22;7016;48.172;8.058;2024-01-07T03:29:48;6.20;99.90
13892;DHT22;7016;48.172;8.058;2024-01-07T03:32:35;6.10;99.90
13892;DHT22;7016;48.172;8.058;2024-01-07T03:35:21;6.10;99.90
13892;DHT22;7016;48.172;8.058;2024-01-07T03:38:10;6.30;99.90
13892;DHT22;7016;48.172;8.058;2024-01-07T03:40:56;6.30;99.90
13892;DHT22;7016;48.172;8.058;2024-01-07T03:43:42;6.40;99.90
13892;DHT22;7016;48.172;8.058;2024-01-07T03:46:28;6.30;99.90
13892;DHT22;7016;48.172;8.058;2024-01-07T03:49:14;6.30;99.90
13892;DHT22;7016;48.172;8.058;2024-01-07T03:52:00;6.30;99.90
13892;DHT22;7016;48.172;8.058;2024-01-07T03:54:46;6.30;99.90
13892;DHT22;7016;48.172;8.058;2024-01-07T03:57:33;6.30;99.90
13892;DHT22;7016;48.172;8.058;2024-01-07T04:00:19;6.30;99.90
13892;DHT22;7016;48.172;8.058;2024-01-07T04:03:06;6.20;99.90
13892;DHT22;7016;48.172;8.058;2024-01-07T04:05:52;6.10;99.90
13892;DHT22;7016;48.172;8.058;2024-01-07T04:08:38;6.20;99.90
13892;DHT22;7016;48.172;8.058;2024-01-07T04:11:24;6.20;99.90
13892;DHT22;7016;48.172;8.058;2024-01-07T04:14:14;6.00;99.90
13892;DHT22;7016;48.172;8.058;2024-01-07T04:17:00;5.90;99.90
13892;DHT22;7016;48.172;8.058;2024-01-07T04:19:47;5.90;99.90
13892;DHT22;7016;48.172;8.058;2024-01-07T04:22:33;6.00;99.90
13892;DHT22;7016;48.172;8.058;2024-01-07T04:25:19;6.00;99.90
13892;DHT22;7016;48.172;8.058;2024-01-07T04:28:05;6.20;99.90
13892;DHT22;7016;48.172;8.058;2024-01-07T04:30:51;6.20;99.90
13892;DHT22;7016;48.172;8.058;2024-01-07T04:33:38;6.10;99.90
13892;DHT22;7016;48.172;8.058;2024-01-07T04:36:24;6.20;99.90
13892;DHT22;7016;48.172;8.058;2024-01-07T04:39:10;6.20;99.90
13892;DHT22;7016;48.172;8.058;2024-01-07T04:41:56;6.20;99.90
13892;DHT22;7016;48.172;8.058;2024-01-07T04:44:42;6.10;99.90
13892;DHT22;7016;48.172;8.058;2024-01-07T04:47:30;6.10;99.90
13892;DHT22;7016;48.172;8.058;2024-01-07T04:50:17;6.00;99.90
13892;DHT22;7016;48.172;8.058;2024-01-07T04:53:05;6.10;99.90
13892;DHT22;7016;48.172;8.058;2024-01-07T04:55:51;5.90;99.90
13892;DHT22;7016;48.172;8.058;2024-01-07T04:58:37;5.90;99.90
13892;DHT22;7016;48.172;8.058;2024-01-07T05:01:24;5.90;99.90
13892;DHT22;7016;48.172;8.058;2024-01-07T05:04:10;6.00;99.90
13892;DHT22;7016;48.172;8.058;2024-01-07T05:06:56;6.00;99.90
13892;DHT22;7016;48.172;8.058;2024-01-07T05:09:42;6.00;99.90
13892;DHT22;7016;48.172;8.058;2024-01-07T05:12:29;6.00;99.90
13892;DHT22;7016;48.172;8.058;2024-01-07T05:15:15;6.10;99.90
13892;DHT22;7016;48.172;8.058;2024-01-07T05:18:01;6.10;99.90
13892;DHT22;7016;48.172;8.058;2024-01-07T05:20:48;6.10;99.90
13892;DHT22;7016;48.172;8.058;2024-01-07T05:23:35;6.10;99.90
13892;DHT22;7016;48.172;8.058;2024-01-07T05:26:21;6.10;99.90
13892;DHT22;7016;48.172;8.058;2024-01-07T05:29:08;6.10;99.90
13892;DHT22;7016;48.172;8.058;2024-01-07T05:31:54;6.00;99.90
13892;DHT22;7016;48.172;8.058;2024-01-07T05:34:40;6.00;99.90
13892;DHT22;7016;48.172;8.058;2024-01-07T05:37:26;6.00;99.90
13892;DHT22;7016;48.172;8.058;2024-01-07T05:40:12;6.10;99.90
13892;DHT22;7016;48.172;8.058;2024-01-07T05:42:59;6.00;99.90
13892;DHT22;7016;48.172;8.058;2024-01-07T05:45:45;6.00;99.90
13892;DHT22;7016;48.172;8.058;2024-01-07T05:48:44;6.00;99.90
13892;DHT22;7016;48.172;8.058;2024-01-07T05:51:30;6.00;99.90
13892;DHT22;7016;48.172;8.058;2024-01-07T05:54:17;6.00;99.90
13892;DHT22;7016;48.172;8.058;2024-01-07T05:57:03;6.00;99.90
13892;DHT22;7016;48.172;8.058;2024-01-07T05:59:49;6.00;99.90
13892;DHT22;7016;48.172;8.058;2024-01-07T06:02:36;6.00;99.90
13892;DHT22;7016;48.172;8.058;2024-01-07T06:05:22;6.00;99.90
13892;DHT22;7016;48.172;8.058;2024-01-07T06:08:08;6.00;99.90
13892;DHT22;7016;48.172;8.058;2024-01-07T06:10:56;6.00;99.90
13892;DHT22;7016;48.172;8.058;2024-01-07T06:13:42;6.00;99.90
13892;DHT22;7016;48.172;8.058;2024-01-07T06:16:28;5.90;99.90
13892;DHT22;7016;48.172;8.058;2024-01-07T06:19:16;5.90;99.90
13892;DHT22;7016;48.172;8.058;2024-01-07T06:22:03;6.00;99.90
13892;DHT22;7016;48.172;8.058;2024-01-07T06:24:49;6.00;99.90
13892;DHT22;7016;48.172;8.058;2024-01-07T06:27:35;6.00;99.90
13892;DHT22;7016;48.172;8.058;2024-01-07T06:30:21;6.00;99.90
13892;DHT22;7016;48.172;8.058;2024-01-07T06:33:08;6.00;99.90
13892;DHT22;7016;48.172;8.058;2024-01-07T06:35:54;6.00;99.90
13892;DHT22;7016;48.172;8.058;2024-01-07T06:38:40;6.00;99.90
13892;DHT22;7016;48.172;8.058;2024-01-07T06:41:26;6.00;99.90
13892;DHT22;7016;48.172;8.058;2024-01-07T06:44:12;5.90;99.90
13892;DHT22;7016;48.172;8.058;2024-01-07T06:46:58;5.90;99.90
13892;DHT22;7016;48.172;8.058;2024-01-07T06:49:44;5.90;99.90
13892;DHT22;7016;48.172;8.058;2024-01-07T06:52:31;6.00;99.90
13892;DHT22;7016;48.172;8.058;2024-01-07T06:55:17;5.90;99.90
13892;DHT22;7016;48.172;8.058;2024-01-07T06:58:03;6.00;99.90
13892;DHT22;7016;48.172;8.058;2024-01-07T07:00:49;6.00;99.90
13892;DHT22;7016;48.172;8.058;2024-01-07T07:03:36;6.00;99.90
13892;DHT22;7016;48.172;8.058;2024-01-07T07:06:23;6.00;99.90
13892;DHT22;7016;48.172;8.058;2024-01-07T07:09:10;6.00;99.90
13892;DHT22;7016;48.172;8.058;2024-01-07T07:11:58;6.00;99.90
13892;DHT22;7016;48.172;8.058;2024-01-07T07:14:44;5.90;99.90
13892;DHT22;7016;48.172;8.058;2024-01-07T07:17:30;5.90;99.90
13892;DHT22;7016;48.172;8.058;2024-01-07T07:20:17;6.00;99.90
13892;DHT22;7016;48.172;8.058;2024-01-07T07:23:03;5.90;99.90
13892;DHT22;7016;48.172;8.058;2024-01-07T07:25:49;5.90;99.90
13892;DHT22;7016;48.172;8.058;2024-01-07T07:28:35;5.90;99.90
13892;DHT22;7016;48.172;8.058;2024-01-07T07:31:22;5.90;99.90
13892;DHT22;7016;48.172;8.058;2024-01-07T07:34:09;6.00;99.90
13892;DHT22;7016;48.172;8.058;2024-01-07T07:36:55;6.00;99.90
13892;DHT22;7016;48.172;8.058;2024-01-07T07:39:42;6.00;99.90
13892;DHT22;7016;48.172;8.058;2024-01-07T07:42:28;5.90;99.90
13892;DHT22;7016;48.172;8.058;2024-01-07T07:45:14;6.00;99.90
13892;DHT22;7016;48.172;8.058;2024-01-07T07:48:00;5.90;99.90
13892;DHT22;7016;48.172;8.058;2024-01-07T07:50:48;6.00;99.90
13892;DHT22;7016;48.172;8.058;2024-01-07T07:53:38;5.90;99.90
13892;DHT22;7016;48.172;8.058;2024-01-07T07:56:25;6.00;99.90
13892;DHT22;7016;48.172;8.058;2024-01-07T07:59:11;6.00;99.90
13892;DHT22;7016;48.172;8.058;2024-01-07T08:01:57;6.00;99.90
13892;DHT22;7016;48.172;8.058;2024-01-07T08:04:43;5.90;99.90
13892;DHT22;7016;48.172;8.058;2024-01-07T08:07:30;5.90;99.90
13892;DHT22;7016;48.172;8.058;2024-01-07T08:10:16;5.90;99.90
13892;DHT22;7016;48.172;8.058;2024-01-07T08:13:02;5.80;99.90
13892;DHT22;7016;48.172;8.058;2024-01-07T08:15:48;5.60;99.90
13892;DHT22;7016;48.172;8.058;2024-01-07T08:18:34;5.60;99.90
13892;DHT22;7016;48.172;8.058;2024-01-07T08:21:20;5.70;99.90
13892;DHT22;7016;48.172;8.058;2024-01-07T08:24:07;5.80;99.90
13892;DHT22;7016;48.172;8.058;2024-01-07T08:26:53;5.80;99.90
13892;DHT22;7016;48.172;8.058;2024-01-07T08:29:45;5.80;99.90
13892;DHT22;7016;48.172;8.058;2024-01-07T08:32:31;5.80;99.90
13892;DHT22;7016;48.172;8.058;2024-01-07T08:35:17;5.80;99.90
13892;DHT22;7016;48.172;8.058;2024-01-07T08:38:03;5.90;99.90
13892;DHT22;7016;48.172;8.058;2024-01-07T08:40:50;5.80;99.90
13892;DHT22;7016;48.172;8.058;2024-01-07T08:43:36;5.70;99.90
13892;DHT22;7016;48.172;8.058;2024-01-07T08:46:22;5.80;99.90
13892;DHT22;7016;48.172;8.058;2024-01-07T08:49:08;5.80;99.90
13892;DHT22;7016;48.172;8.058;2024-01-07T08:51:54;5.80;99.90
13892;DHT22;7016;48.172;8.058;2024-01-07T08:54:42;5.80;99.90
13892;DHT22;7016;48.172;8.058;2024-01-07T08:57:28;5.80;99.90
13892;DHT22;7016;48.172;8.058;2024-01-07T09:00:14;5.70;99.90
13892;DHT22;7016;48.172;8.058;2024-01-07T09:03:01;5.80;99.90
13892;DHT22;7016;48.172;8.058;2024-01-07T09:05:48;5.70;99.90
13892;DHT22;7016;48.172;8.058;2024-01-07T09:08:34;5.70;99.90
13892;DHT22;7016;48.172;8.058;2024-01-07T09:11:21;5.70;99.90
13892;DHT22;7016;48.172;8.058;2024-01-07T09:14:07;5.80;99.90
13892;DHT22;7016;48.172;8.058;2024-01-07T09:16:54;5.80;99.90
13892;DHT22;7016;48.172;8.058;2024-01-07T09:19:45;5.60;99.90
13892;DHT22;7016;48.172;8.058;2024-01-07T09:22:34;5.60;99.90
13892;DHT22;7016;48.172;8.058;2024-01-07T09:25:20;5.70;99.90
13892;DHT22;7016;48.172;8.058;2024-01-07T09:28:06;5.80;99.90
13892;DHT22;7016;48.172;8.058;2024-01-07T09:30:52;5.80;99.90
13892;DHT22;7016;48.172;8.058;2024-01-07T09:33:39;5.70;99.90
13892;DHT22;7016;48.172;8.058;2024-01-07T09:36:25;5.70;99.90
13892;DHT22;7016;48.172;8.058;2024-01-07T09:39:11;5.70;99.90
13892;DHT22;7016;48.172;8.058;2024-01-07T09:41:58;5.70;99.90
13892;DHT22;7016;48.172;8.058;2024-01-07T09:44:46;5.70;99.90
13892;DHT22;7016;48.172;8.058;2024-01-07T09:47:32;5.70;99.90
13892;DHT22;7016;48.172;8.058;2024-01-07T09:50:18;5.70;99.90
13892;DHT22;7016;48.172;8.058;2024-01-07T09:53:07;5.70;99.90
13892;DHT22;7016;48.172;8.058;2024-01-07T09:58:52;5.80;99.90
13892;DHT22;7016;48.172;8.058;2024-01-07T10:01:38;5.90;99.90
13892;DHT22;7016;48.172;8.058;2024-01-07T10:04:26;5.90;99.90
13892;DHT22;7016;48.172;8.058;2024-01-07T10:07:13;5.90;99.90
13892;DHT22;7016;48.172;8.058;2024-01-07T10:10:16;6.00;99.90
13892;DHT22;7016;48.172;8.058;2024-01-07T10:13:06;6.00;99.90
13892;DHT22;7016;48.172;8.058;2024-01-07T10:15:54;6.00;99.90
13892;DHT22;7016;48.172;8.058;2024-01-07T10:18:41;6.00;99.90
13892;DHT22;7016;48.172;8.058;2024-01-07T10:21:27;6.00;99.90
13892;DHT22;7016;48.172;8.058;2024-01-07T10:24:13;6.00;99.90
13892;DHT22;7016;48.172;8.058;2024-01-07T10:26:59;6.00;99.90
13892;DHT22;7016;48.172;8.058;2024-01-07T10:29:47;6.10;99.90
13892;DHT22;7016;48.172;8.058;2024-01-07T10:32:37;6.10;99.90
13892;DHT22;7016;48.172;8.058;2024-01-07T10:35:27;6.10;99.90
13892;DHT22;7016;48.172;8.058;2024-01-07T10:38:14;6.20;99.90
13892;DHT22;7016;48.172;8.058;2024-01-07T10:41:01;6.20;99.90
13892;DHT22;7016;48.172;8.058;2024-01-07T10:43:47;6.00;99.90
13892;DHT22;7016;48.172;8.058;2024-01-07T10:46:34;6.00;99.90
13892;DHT22;7016;48.172;8.058;2024-01-07T10:49:21;6.10;99.90
13892;DHT22;7016;48.172;8.058;2024-01-07T10:52:08;6.10;99.90
13892;DHT22;7016;48.172;8.058;2024-01-07T10:55:02;6.10;99.90
13892;DHT22;7016;48.172;8.058;2024-01-07T10:57:53;6.10;99.90
13892;DHT22;7016;48.172;8.058;2024-01-07T11:00:42;6.20;99.90
13892;DHT22;7016;48.172;8.058;2024-01-07T11:03:39;6.20;99.90
13892;DHT22;7016;48.172;8.058;2024-01-07T11:07:00;6.10;99.90
13892;DHT22;7016;48.172;8.058;2024-01-07T11:09:53;6.10;99.90
13892;DHT22;7016;48.172;8.058;2024-01-07T11:12:40;6.10;99.90
13892;DHT22;7016;48.172;8.058;2024-01-07T11:15:53;6.00;99.90
13892;DHT22;7016;48.172;8.058;2024-01-07T11:18:46;6.00;99.90
13892;DHT22;7016;48.172;8.058;2024-01-07T11:21:32;6.10;99.90
13892;DHT22;7016;48.172;8.058;2024-01-07T11:24:37;6.10;99.90
13892;DHT22;7016;48.172;8.058;2024-01-07T11:27:25;6.10;99.90
13892;DHT22;7016;48.172;8.058;2024-01-07T11:30:19;6.10;99.90
13892;DHT22;7016;48.172;8.058;2024-01-07T11:33:05;6.20;99.90
13892;DHT22;7016;48.172;8.058;2024-01-07T11:36:00;6.20;99.90
13892;DHT22;7016;48.172;8.058;2024-01-07T11:38:48;6.10;99.90
13892;DHT22;7016;48.172;8.058;2024-01-07T11:41:35;6.10;99.90
13892;DHT22;7016;48.172;8.058;2024-01-07T11:44:22;6.10;99.90
13892;DHT22;7016;48.172;8.058;2024-01-07T11:47:08;6.10;99.90
13892;DHT22;7016;48.172;8.058;2024-01-07T11:49:54;6.20;99.90
13892;DHT22;7016;48.172;8.058;2024-01-07T11:52:42;6.10;99.90
13892;DHT22;7016;48.172;8.058;2024-01-07T11:55:28;6.10;99.90
13892;DHT22;7016;48.172;8.058;2024-01-07T11:58:15;6.10;99.90
13892;DHT22;7016;48.172;8.058;2024-01-07T12:01:01;6.00;99.90
13892;DHT22;7016;48.172;8.058;2024-01-07T12:03:49;5.90;99.90
13892;DHT22;7016;48.172;8.058;2024-01-07T12:06:37;5.80;99.90
13892;DHT22;7016;48.172;8.058;2024-01-07T12:09:23;5.70;99.90
13892;DHT22;7016;48.172;8.058;2024-01-07T12:12:10;5.70;99.90
13892;DHT22;7016;48.172;8.058;2024-01-07T12:14:57;5.80;99.90
13892;DHT22;7016;48.172;8.058;2024-01-07T12:17:55;5.70;99.90
13892;DHT22;7016;48.172;8.058;2024-01-07T12:20:55;5.70;99.90
13892;DHT22;7016;48.172;8.058;2024-01-07T12:23:41;5.80;99.90
13892;DHT22;7016;48.172;8.058;2024-01-07T12:26:28;5.90;99.90
13892;DHT22;7016;48.172;8.058;2024-01-07T12:29:14;6.00;99.90
13892;DHT22;7016;48.172;8.058;2024-01-07T12:32:00;6.00;99.90
13892;DHT22;7016;48.172;8.058;2024-01-07T12:34:48;5.90;99.90
13892;DHT22;7016;48.172;8.058;2024-01-07T12:37:34;6.00;99.90
13892;DHT22;7016;48.172;8.058;2024-01-07T12:40:22;5.70;99.90
13892;DHT22;7016;48.172;8.058;2024-01-07T12:43:10;5.90;99.90
13892;DHT22;7016;48.172;8.058;2024-01-07T12:45:56;5.90;99.90
13892;DHT22;7016;48.172;8.058;2024-01-07T12:48:43;6.00;99.90
13892;DHT22;7016;48.172;8.058;2024-01-07T12:51:30;5.90;99.90
13892;DHT22;7016;48.172;8.058;2024-01-07T12:54:16;5.70;99.90
13892;DHT22;7016;48.172;8.058;2024-01-07T12:57:02;5.60;99.90
13892;DHT22;7016;48.172;8.058;2024-01-07T12:59:48;5.60;99.90
13892;DHT22;7016;48.172;8.058;2024-01-07T13:02:34;5.50;99.90
13892;DHT22;7016;48.172;8.058;2024-01-07T13:05:21;5.50;99.90
13892;DHT22;7016;48.172;8.058;2024-01-07T13:08:08;5.60;99.90
13892;DHT22;7016;48.172;8.058;2024-01-07T13:10:54;5.60;99.90
13892;DHT22;7016;48.172;8.058;2024-01-07T13:13:41;5.60;99.90
13892;DHT22;7016;48.172;8.058;2024-01-07T13:16:28;5.60;99.90
13892;DHT22;7016;48.172;8.058;2024-01-07T13:19:14;5.50;99.90
13892;DHT22;7016;48.172;8.058;2024-01-07T13:22:00;5.50;99.90
13892;DHT22;7016;48.172;8.058;2024-01-07T13:24:47;5.60;99.90
13892;DHT22;7016;48.172;8.058;2024-01-07T13:27:33;5.60;99.90
13892;DHT22;7016;48.172;8.058;2024-01-07T13:30:20;5.70;99.90
13892;DHT22;7016;48.172;8.058;2024-01-07T13:33:07;5.50;99.90
13892;DHT22;7016;48.172;8.058;2024-01-07T13:35:53;5.50;99.90
13892;DHT22;7016;48.172;8.058;2024-01-07T13:38:40;5.50;99.90
13892;DHT22;7016;48.172;8.058;2024-01-07T13:41:27;5.40;99.90
13892;DHT22;7016;48.172;8.058;2024-01-07T13:44:15;5.50;99.90
13892;DHT22;7016;48.172;8.058;2024-01-07T13:47:04;5.50;99.90
13892;DHT22;7016;48.172;8.058;2024-01-07T13:49:51;5.60;99.90
13892;DHT22;7016;48.172;8.058;2024-01-07T13:52:37;5.50;99.90
13892;DHT22;7016;48.172;8.058;2024-01-07T13:55:23;5.50;99.90
13892;DHT22;7016;48.172;8.058;2024-01-07T13:58:09;5.40;99.90
13892;DHT22;7016;48.172;8.058;2024-01-07T14:00:55;5.30;99.90
13892;DHT22;7016;48.172;8.058;2024-01-07T14:03:42;5.30;99.90
13892;DHT22;7016;48.172;8.058;2024-01-07T14:06:28;5.20;99.90
13892;DHT22;7016;48.172;8.058;2024-01-07T14:09:14;5.10;99.90
13892;DHT22;7016;48.172;8.058;2024-01-07T14:12:00;5.20;99.90
13892;DHT22;7016;48.172;8.058;2024-01-07T14:14:48;5.30;99.90
13892;DHT22;7016;48.172;8.058;2024-01-07T14:17:34;5.20;99.90
13892;DHT22;7016;48.172;8.058;2024-01-07T14:20:20;5.10;99.90
13892;DHT22;7016;48.172;8.058;2024-01-07T14:23:07;5.10;99.90
13892;DHT22;7016;48.172;8.058;2024-01-07T14:25:53;5.20;99.90
13892;DHT22;7016;48.172;8.058;2024-01-07T14:28:40;5.00;99.90
13892;DHT22;7016;48.172;8.058;2024-01-07T14:31:26;4.80;99.90
13892;DHT22;7016;48.172;8.058;2024-01-07T14:34:12;4.70;99.90
13892;DHT22;7016;48.172;8.058;2024-01-07T14:36:59;4.70;99.90
13892;DHT22;7016;48.172;8.058;2024-01-07T14:39:46;4.60;99.90
13892;DHT22;7016;48.172;8.058;2024-01-07T14:42:32;4.70;99.90
13892;DHT22;7016;48.172;8.058;2024-01-07T14:45:18;4.50;99.90
13892;DHT22;7016;48.172;8.058;2024-01-07T14:48:05;4.50;99.90
13892;DHT22;7016;48.172;8.058;2024-01-07T14:50:51;4.60;99.90
13892;DHT22;7016;48.172;8.058;2024-01-07T14:53:37;4.60;99.90
13892;DHT22;7016;48.172;8.058;2024-01-07T14:56:23;4.50;99.90
13892;DHT22;7016;48.172;8.058;2024-01-07T14:59:10;4.30;99.90
13892;DHT22;7016;48.172;8.058;2024-01-07T15:01:56;4.20;99.90
13892;DHT22;7016;48.172;8.058;2024-01-07T15:04:42;4.30;99.90
13892;DHT22;7016;48.172;8.058;2024-01-07T15:07:29;4.40;99.90
13892;DHT22;7016;48.172;8.058;2024-01-07T15:10:16;4.20;99.90
13892;DHT22;7016;48.172;8.058;2024-01-07T15:13:03;4.30;99.90
13892;DHT22;7016;48.172;8.058;2024-01-07T15:15:49;4.20;99.90
13892;DHT22;7016;48.172;8.058;2024-01-07T15:18:35;4.20;99.90
13892;DHT22;7016;48.172;8.058;2024-01-07T15:21:22;4.20;99.90
13892;DHT22;7016;48.172;8.058;2024-01-07T15:24:08;4.10;99.90
13892;DHT22;7016;48.172;8.058;2024-01-07T15:26:55;4.10;99.90
13892;DHT22;7016;48.172;8.058;2024-01-07T15:29:41;4.00;99.90
13892;DHT22;7016;48.172;8.058;2024-01-07T15:32:27;4.10;99.90
13892;DHT22;7016;48.172;8.058;2024-01-07T15:35:13;4.20;99.90
13892;DHT22;7016;48.172;8.058;2024-01-07T15:38:00;4.10;99.90
13892;DHT22;7016;48.172;8.058;2024-01-07T15:40:46;4.20;99.90
13892;DHT22;7016;48.172;8.058;2024-01-07T15:43:32;4.10;99.90
13892;DHT22;7016;48.172;8.058;2024-01-07T15:46:20;4.20;99.90
13892;DHT22;7016;48.172;8.058;2024-01-07T15:49:09;4.30;99.90
13892;DHT22;7016;48.172;8.058;2024-01-07T15:51:55;4.30;99.90
13892;DHT22;7016;48.172;8.058;2024-01-07T15:54:41;4.30;99.90
13892;DHT22;7016;48.172;8.058;2024-01-07T15:57:27;4.30;99.90
13892;DHT22;7016;48.172;8.058;2024-01-07T16:00:14;4.30;99.90
13892;DHT22;7016;48.172;8.058;2024-01-07T16:03:00;4.20;99.90
13892;DHT22;7016;48.172;8.058;2024-01-07T16:05:46;4.10;99.90
13892;DHT22;7016;48.172;8.058;2024-01-07T16:08:33;4.10;99.90
13892;DHT22;7016;48.172;8.058;2024-01-07T16:11:19;4.20;99.90
13892;DHT22;7016;48.172;8.058;2024-01-07T16:14:05;4.20;99.90
13892;DHT22;7016;48.172;8.058;2024-01-07T16:16:52;4.10;99.90
13892;DHT22;7016;48.172;8.058;2024-01-07T16:19:38;4.10;99.90
13892;DHT22;7016;48.172;8.058;2024-01-07T16:22:25;4.10;99.90
13892;DHT22;7016;48.172;8.058;2024-01-07T16:25:11;4.10;99.90
13892;DHT22;7016;48.172;8.058;2024-01-07T16:27:57;4.10;99.90
13892;DHT22;7016;48.172;8.058;2024-01-07T16:30:45;4.20;99.90
13892;DHT22;7016;48.172;8.058;2024-01-07T16:33:31;4.10;99.90
13892;DHT22;7016;48.172;8.058;2024-01-07T16:36:19;4.00;99.90
13892;DHT22;7016;48.172;8.058;2024-01-07T16:39:05;3.80;99.90
13892;DHT22;7016;48.172;8.058;2024-01-07T16:41:51;3.80;99.90
13892;DHT22;7016;48.172;8.058;2024-01-07T16:44:44;3.90;99.90
13892;DHT22;7016;48.172;8.058;2024-01-07T16:47:31;3.80;99.90
13892;DHT22;7016;48.172;8.058;2024-01-07T16:50:17;3.70;99.90
13892;DHT22;7016;48.172;8.058;2024-01-07T16:53:04;3.60;99.90
13892;DHT22;7016;48.172;8.058;2024-01-07T16:55:51;3.60;99.90
13892;DHT22;7016;48.172;8.058;2024-01-07T16:58:37;3.60;99.90
13892;DHT22;7016;48.172;8.058;2024-01-07T17:01:23;3.70;99.90
13892;DHT22;7016;48.172;8.058;2024-01-07T17:04:11;3.80;99.90
13892;DHT22;7016;48.172;8.058;2024-01-07T17:06:57;3.70;99.90
13892;DHT22;7016;48.172;8.058;2024-01-07T17:09:43;3.70;99.90
13892;DHT22;7016;48.172;8.058;2024-01-07T17:12:29;3.80;99.90
13892;DHT22;7016;48.172;8.058;2024-01-07T17:15:16;3.70;99.90
13892;DHT22;7016;48.172;8.058;2024-01-07T17:18:02;3.80;99.90
13892;DHT22;7016;48.172;8.058;2024-01-07T17:20:48;3.80;99.90
13892;DHT22;7016;48.172;8.058;2024-01-07T17:23:35;3.80;99.90
13892;DHT22;7016;48.172;8.058;2024-01-07T17:26:21;3.70;99.90
13892;DHT22;7016;48.172;8.058;2024-01-07T17:29:09;3.60;99.90
13892;DHT22;7016;48.172;8.058;2024-01-07T17:31:56;3.40;99.90
13892;DHT22;7016;48.172;8.058;2024-01-07T17:34:43;3.30;99.90
13892;DHT22;7016;48.172;8.058;2024-01-07T17:37:29;3.50;99.90
13892;DHT22;7016;48.172;8.058;2024-01-07T17:40:15;3.50;99.90
13892;DHT22;7016;48.172;8.058;2024-01-07T17:43:01;3.50;99.90
13892;DHT22;7016;48.172;8.058;2024-01-07T17:45:50;3.40;99.90
13892;DHT22;7016;48.172;8.058;2024-01-07T17:48:37;3.40;99.90
13892;DHT22;7016;48.172;8.058;2024-01-07T17:51:24;3.40;99.90
13892;DHT22;7016;48.172;8.058;2024-01-07T17:54:10;3.40;99.90
13892;DHT22;7016;48.172;8.058;2024-01-07T17:56:57;3.40;99.90
13892;DHT22;7016;48.172;8.058;2024-01-07T17:59:44;3.20;99.90
13892;DHT22;7016;48.172;8.058;2024-01-07T18:02:30;3.10;99.90
13892;DHT22;7016;48.172;8.058;2024-01-07T18:05:16;3.00;99.90
13892;DHT22;7016;48.172;8.058;2024-01-07T18:08:03;3.10;99.90
13892;DHT22;7016;48.172;8.058;2024-01-07T18:10:50;3.20;99.90
13892;DHT22;7016;48.172;8.058;2024-01-07T18:13:36;3.00;99.90